Terminal Aerodrome Forecast
Issued by NWS Memphis, TN

Home | Current Version | Previous Version | Text Only | Print | Product List | Glossary On
Versions: 1 2 3 4 5 6 7 8 9 10 11 12 13 14 15 16
290
FTUS44 KMEG 260851 AAA
TAFMKL
TAF AMD
KMKL 260851Z 2609/2706 19006KT P6SM SCT250
     FM261300 20012G20KT P6SM BKN250
     FM261700 21015G23KT P6SM FEW040 BKN250
     FM262300 21010G16KT P6SM SCT040 BKN200
     FM270300 20009KT P6SM FEW015 BKN035=

USA.gov is the U.S. government's official web portal to all federal, state and local government web resources and services.